• Join FlightAware (Why Join?)
  • Login
  • US Flag GB Flag 
05:52 EDT


 

Airport Tracker/Info


-or-


 

Live Flight TrackerFlight Track Log ✈ DAL268 ✈ 22-Apr-2013 ✈ KJFK - LLBG / TLV

Flight Track Log - Related Links

Times and Time Zones

All times are in EDT time to prevent confusion due to time zone crossing. See the DAL268 flight status page for this flight to view local times or setup timezone preferences in your user account.

Time Position Orientation Groundspeed Altitude Reporting Facility
EDT Latitude Longitude Course Direction KTS MPH feet Rate Location/Type
00:12 40.6167 -73.7500 37° Northeast 168 193 1,200  Level New York TRACON
00:13 40.6167 -73.6833 90° East 198 228 2,100 1,200 Climbing New York TRACON
00:14 40.6667 -73.6167 45° Northeast 251 289 3,600 1,800 Climbing New York TRACON
00:15 40.9605 -73.4790 56° Northeast  Level FlightAware Approximate
00:15 40.7167 -73.5500 45° Northeast 273 314 5,700  Level New York TRACON
00:16 41.0813 -73.3776 30° Northeast  Level FlightAware Approximate
00:17 41.2038 -73.2795 37° Northeast  Level FlightAware Approximate
00:18 40.8728 -73.4089 34° Northeast 295 339 10,400  Level Boston Center
00:19 40.9669 -73.3636 20° North 314 361 11,200 1,500 Climbing Boston Center
00:20 41.1197 -73.2722 24° Northeast 381 438 14,100 2,220 Climbing Boston Center
00:21 41.1914 -73.1461 53° Northeast 402 463 16,200 2,040 Climbing Boston Center
00:22 41.2611 -73.0172 54° Northeast 410 472 18,200 1,740 Climbing Boston Center
00:23 41.3386 -72.8825 53° Northeast 450 518 19,700 1,500 Climbing Boston Center
00:24 41.4164 -72.7472 52° Northeast 457 526 21,200 1,500 Climbing Boston Center
00:25 41.4978 -72.6036 53° Northeast 470 541 22,800 1,320 Climbing Boston Center
00:26 41.5814 -72.4567 53° Northeast 481 554 23,900 1,500 Climbing Boston Center
00:27 41.6564 -72.3178 54° Northeast 497 572 25,800 1,500 Climbing Boston Center
00:28 41.7394 -72.1647 54° Northeast 503 579 27,000 960 Climbing Boston Center
00:29 41.8244 -72.0083 54° Northeast 508 585 27,800 900 Climbing Boston Center
00:30 41.9133 -71.8458 54° Northeast 520 598 28,800 1,140 Climbing Boston Center
00:31 42.0019 -71.6775 55° Northeast 535 616 30,100 1,020 Climbing Boston Center
00:32 42.0944 -71.5169 52° Northeast 540 621 30,900 780 Climbing Boston Center
00:33 42.1847 -71.3475 54° Northeast 545 627 31,700 780 Climbing Boston Center
00:34 42.2744 -71.1747 55° Northeast 559 643 32,500 600 Climbing Boston Center
00:35 42.3683 -70.9986 54° Northeast 564 649 33,000 240 Climbing Boston Center
00:36 42.4575 -70.8164 56° Northeast 569 655 33,000  Level Boston Center
00:37 42.5486 -70.6392 55° Northeast 569 655 33,000  Level Boston Center
00:38 42.6275 -70.4958 53° Northeast 574 661 33,000  Level Boston Center
00:39 42.7503 -70.2489 56° Northeast 574 661 33,000  Level Boston Center
00:40 42.8406 -70.0672 56° Northeast 569 655 33,000  Level Boston Center
00:41 42.9344 -69.8847 55° Northeast 574 661 33,000  Level Boston Center
00:42 43.0261 -69.7050 55° Northeast 579 666 33,000  Level Boston Center
00:43 43.1175 -69.5217 56° Northeast 579 666 33,000  Level Boston Center
00:44 43.1886 -69.3731 57° Northeast 579 666 33,000  Level Boston Center
00:45 43.2333 -69.2833 56° Northeast 580 667 33,000  Level Moncton Center
00:46 43.3167 -69.1000 58° Northeast 580 667 33,000  Level Moncton Center
00:46 43.3975 -68.9536 53° Northeast 579 666 33,000  Level Boston Center
00:47 43.4878 -68.7681 56° Northeast 584 672 33,000  Level Boston Center
00:48 43.5000 -68.7333 64° Northeast 580 667 33,000  Level Moncton Center
00:49 43.5667 -68.5500 63° Northeast 580 667 33,000  Level Moncton Center
00:49 43.6575 -68.4219 46° Northeast 578 665 33,000  Level Boston Center
00:50 43.6833 -68.3333 68° East 600 690 33,000  Level Moncton Center
00:51 43.7667 -68.1500 58° Northeast 590 679 33,000  Level Moncton Center
00:51 43.8375 -68.0442 47° Northeast 578 665 33,000  Level Boston Center
00:52 43.9356 -67.8322 57° Northeast 586 674 33,000  Level Boston Center
00:53 43.9500 -67.7667 73° East 590 679 33,000  Level Moncton Center
00:54 44.0333 -67.5833 58° Northeast 590 679 33,000  Level Moncton Center
00:55 44.1333 -67.4000 53° Northeast 590 679 33,000  Level Moncton Center
00:56 44.2167 -67.2000 60° Northeast 590 679 33,000  Level Moncton Center
00:57 44.3000 -67.0167 58° Northeast 590 679 33,000  Level Moncton Center
00:58 44.4000 -66.8000 57° Northeast 590 679 33,000  Level Moncton Center
00:59 44.4833 -66.6167 57° Northeast 590 679 33,000  Level Moncton Center
01:00 44.5667 -66.4167 60° Northeast 590 679 33,000  Level Moncton Center
01:01 44.6500 -66.2000 62° Northeast 600 690 33,000  Level Moncton Center
01:02 44.7500 -66.0167 52° Northeast 600 690 33,000  Level Moncton Center
01:03 44.8333 -65.8167 60° Northeast 600 690 33,000  Level Moncton Center
01:04 44.9167 -65.6333 57° Northeast 600 690 33,000  Level Moncton Center
01:05 45.0167 -65.4167 57° Northeast 600 690 33,000  Level Moncton Center
01:06 45.0833 -65.2333 63° Northeast 600 690 33,000  Level Moncton Center
01:07 45.1833 -65.0167 57° Northeast 600 690 33,000  Level Moncton Center
01:08 45.2667 -64.8167 59° Northeast 600 690 33,000  Level Moncton Center
01:09 45.3500 -64.6167 59° Northeast 600 690 33,000  Level Moncton Center
01:10 45.4333 -64.4000 61° Northeast 600 690 33,000  Level Moncton Center
01:11 45.5167 -64.1833 61° Northeast 600 690 33,000  Level Moncton Center
01:12 45.6000 -63.9833 59° Northeast 590 679 33,000  Level Moncton Center
01:13 45.6833 -63.8000 57° Northeast 590 679 33,000  Level Moncton Center
01:14 45.7667 -63.5833 61° Northeast 590 679 33,000  Level Moncton Center
01:15 45.8500 -63.3833 59° Northeast 590 679 33,000  Level Moncton Center
01:16 45.9333 -63.1667 61° Northeast 590 679 33,000  Level Moncton Center
01:17 46.0167 -62.9833 57° Northeast 590 679 33,000  Level Moncton Center
01:18 46.1000 -62.7500 63° Northeast 580 667 33,000  Level Moncton Center
01:19 46.1833 -62.5667 57° Northeast 580 667 33,000  Level Moncton Center
01:20 46.2667 -62.3667 59° Northeast 580 667 33,000  Level Moncton Center
01:21 46.3333 -62.1667 64° Northeast 580 667 33,000  Level Moncton Center
01:22 46.4167 -61.9500 61° Northeast 570 656 33,000  Level Moncton Center
01:23 46.5000 -61.7500 59° Northeast 570 656 33,000  Level Moncton Center
01:24 46.5667 -61.5500 64° Northeast 570 656 33,000  Level Moncton Center
01:25 46.6333 -61.3500 64° Northeast 570 656 33,000  Level Moncton Center
01:26 46.7167 -61.1500 59° Northeast 570 656 33,000  Level Moncton Center
01:27 46.8000 -60.9500 59° Northeast 570 656 33,000  Level Moncton Center
01:28 46.8667 -60.7167 67° East 570 656 33,000  Level Moncton Center
01:29 46.9500 -60.5500 54° Northeast 570 656 33,000  Level Moncton Center
01:30 47.0167 -60.3167 67° East 560 644 33,000  Level Moncton Center
01:31 47.0833 -60.1167 64° Northeast 560 644 33,000  Level Moncton Center
01:32 47.1667 -59.9333 56° Northeast 550 633 33,000  Level Moncton Center
01:33 47.2333 -59.7167 66° East 560 644 33,000  Level Moncton Center
01:34 47.3000 -59.5333 62° Northeast 540 621 33,000  Level Moncton Center
01:35 47.3500 -59.3333 70° East 540 621 33,000  Level Moncton Center
01:36 47.4333 -59.1167 60° Northeast 540 621 33,000  Level Moncton Center
01:37 47.5000 -58.9500 59° Northeast 520 598 33,000  Level Moncton Center
01:38 47.5667 -58.7333 65° Northeast 520 598 33,000  Level Moncton Center
01:39 47.6167 -58.5500 68° East 520 598 33,000  Level Moncton Center
01:40 47.6833 -58.3500 64° Northeast 520 598 33,000  Level Moncton Center
01:41 47.7500 -58.1667 62° Northeast 520 598 33,000  Level Moncton Center
01:42 47.8167 -57.9667 64° Northeast 520 598 33,000  Level Moncton Center
01:43 47.8833 -57.7833 61° Northeast 520 598 33,000  Level Moncton Center
01:44 47.9500 -57.5667 65° Northeast 520 598 33,000  Level Moncton Center
01:45 48.0000 -57.3833 68° East 520 598 33,000  Level Moncton Center
01:46 48.0667 -57.2000 61° Northeast 520 598 33,000  Level Moncton Center
01:47 48.1500 -56.9500 63° Northeast 520 598 33,000  Level Gander Center
01:48 48.1833 -56.7667 75° East 520 598 33,000  Level Gander Center
01:49 48.2667 -56.5667 58° Northeast 530 610 33,000  Level Gander Center
01:50 48.3167 -56.3500 71° East 520 598 33,000  Level Gander Center
01:51 48.3833 -56.1667 61° Northeast 520 598 33,000  Level Gander Center
01:52 48.4333 -55.9833 68° East 520 598 33,000  Level Gander Center
01:53 48.5000 -55.7833 63° Northeast 520 598 33,000  Level Gander Center
01:54 48.5500 -55.5667 71° East 510 587 33,000  Level Gander Center
01:55 48.6167 -55.3667 63° Northeast 510 587 33,000  Level Gander Center
01:56 48.6667 -55.1833 68° East 520 598 33,000  Level Gander Center
01:57 48.7167 -54.9667 71° East 520 598 33,000  Level Gander Center
01:58 48.7833 -54.7833 61° Northeast 520 598 33,000  Level Gander Center
01:59 48.8333 -54.5667 71° East 520 598 33,000  Level Gander Center
02:00 48.8833 -54.3667 69° East 520 598 33,000  Level Gander Center
02:01 48.9500 -54.1833 61° Northeast 520 598 33,000  Level Gander Center
02:02 49.0000 -53.9667 71° East 510 587 33,000  Level Gander Center
02:03 49.0500 -53.7500 71° East 510 587 33,000  Level Gander Center
02:04 49.1000 -53.5667 67° East 510 587 33,000  Level Gander Center
02:05 49.1667 -53.3667 63° Northeast 510 587 33,000  Level Gander Center
02:05 49.2000 -53.1833 74° East 510 587 33,000  Level Gander Center
02:06 49.2500 -53.0000 67° East 510 587 33,000  Level Gander Center
02:07 49.3000 -52.7833 70° East 510 587 33,000  Level Gander Center
02:08 49.3500 -52.6000 67° East 510 587 33,000  Level Gander Center
02:09 49.4000 -52.4000 69° East 500 575 33,000  Level Gander Center
02:10 49.4500 -52.1833 70° East 500 575 33,000  Level Gander Center
02:11 49.5167 -52.0000 61° Northeast 500 575 33,000  Level Gander Center
02:12 49.5500 -51.7833 77° East 500 575 33,000  Level Gander Center
02:13 49.6167 -51.5833 63° Northeast 500 575 33,000  Level Gander Center
02:14 49.6500 -51.3667 77° East 500 575 33,000  Level Gander Center
02:15 49.6833 -51.1833 74° East 500 575 33,000  Level Gander Center
02:16 49.7333 -50.9833 69° East 510 587 33,000  Level Gander Center
02:17 49.7833 -50.7667 70° East 500 575 33,000  Level Gander Center
02:18 49.8333 -50.5833 67° East 510 587 33,000  Level Gander Center
02:19 49.8833 -50.3833 69° East 500 575 33,000  Level Gander Center
02:20 49.9333 -50.1667 70° East 500 575 33,000  Level Gander Center
02:21 49.9833 -49.9667 69° East 500 575 33,000  Level Gander Center
02:22 50.0333 -49.7667 69° East 490 564 33,000  Level Gander Center
02:23 50.0833 -49.5833 67° East 490 564 33,000  Level Gander Center
02:24 50.0000 -50.0000 69° East 516 594 33,000  Level ETMS Enhanced Traffic Management System
02:24 50.1167 -49.3500 69° East 500 575 33,000  Level Gander Center
02:25 50.1667 -49.1667 67° East 500 575 33,000  Level Gander Center
02:26 50.2167 -48.9667 69° East 510 587 33,000  Level Gander Center
02:27 50.2833 -48.7667 62° Northeast 500 575 33,000  Level Gander Center
02:28 50.3167 -48.5667 75° East 510 587 33,000  Level Gander Center
02:29 50.3833 -48.3333 66° East 510 587 33,000  Level Gander Center
02:30 50.4333 -48.1333 69° East 510 587 33,000  Level Gander Center
02:33 50.5301 -47.7285 69° East  Level FlightAware Approximate
02:40 50.8824 -46.1811 71° East  Level FlightAware Approximate
02:41 50.9296 -45.9574 71° East  Level FlightAware Approximate
02:42 50.9763 -45.7332 72° East  Level FlightAware Approximate
02:43 51.0227 -45.5086 72° East  Level FlightAware Approximate
02:44 51.0686 -45.2835 72° East  Level FlightAware Approximate
02:45 51.1140 -45.0580 72° East  Level FlightAware Approximate
02:46 51.1590 -44.8321 72° East  Level FlightAware Approximate
02:47 51.2036 -44.6057 72° East  Level FlightAware Approximate
02:48 51.2478 -44.3788 73° East  Level FlightAware Approximate
02:49 51.2915 -44.1516 73° East  Level FlightAware Approximate
02:50 51.3348 -43.9239 73° East  Level FlightAware Approximate
02:51 51.3776 -43.6958 73° East  Level FlightAware Approximate
02:52 51.4200 -43.4672 73° East  Level FlightAware Approximate
02:53 51.4619 -43.2383 74° East  Level FlightAware Approximate
02:54 51.5034 -43.0089 74° East  Level FlightAware Approximate
02:55 51.5444 -42.7791 74° East  Level FlightAware Approximate
02:56 51.5850 -42.5489 74° East  Level FlightAware Approximate
02:57 51.6252 -42.3182 74° East  Level FlightAware Approximate
02:58 51.6648 -42.0872 74° East  Level FlightAware Approximate
02:59 51.7041 -41.8558 75° East  Level FlightAware Approximate
03:00 51.7429 -41.6240 75° East  Level FlightAware Approximate
03:01 51.7812 -41.3917 75° East  Level FlightAware Approximate
03:02 51.8191 -41.1591 75° East  Level FlightAware Approximate
03:03 51.8565 -40.9261 75° East  Level FlightAware Approximate
03:04 51.8934 -40.6927 76° East  Level FlightAware Approximate
03:05 51.9299 -40.4589 76° East  Level FlightAware Approximate
03:06 51.9659 -40.2248 76° East  Level FlightAware Approximate
03:07 52.0023 -39.9907 68° East  Level FlightAware Approximate
03:08 52.0587 -39.7669 68° East  Level FlightAware Approximate
03:09 52.1145 -39.5425 68° East  Level FlightAware Approximate
03:10 52.1700 -39.3176 68° East  Level FlightAware Approximate
03:11 52.2250 -39.0922 68° East  Level FlightAware Approximate
03:11 52.0000 -40.0000 68° East 556 640 33,000  Level ETMS Enhanced Traffic Management System
03:12 52.2796 -38.8661 68° East  Level FlightAware Approximate
03:13 52.3338 -38.6395 69° East  Level FlightAware Approximate
03:14 52.3875 -38.4124 69° East  Level FlightAware Approximate
03:15 52.4408 -38.1847 69° East  Level FlightAware Approximate
03:16 52.4936 -37.9565 69° East  Level FlightAware Approximate
03:17 52.5098 -37.8862 69° East 556 640 33,000  Level FlightAware Transoceanic
03:18 52.5641 -37.6484 70° East 556 640 33,000  Level FlightAware Transoceanic
03:19 52.6179 -37.4099 70° East 556 640 33,000  Level FlightAware Transoceanic
03:20 52.6712 -37.1709 70° East 556 640 33,000  Level FlightAware Transoceanic
03:21 52.7241 -36.9313 70° East 556 640 33,000  Level FlightAware Transoceanic
03:22 52.7764 -36.6912 70° East 556 640 33,000  Level FlightAware Transoceanic
03:23 52.8283 -36.4504 70° East 556 640 33,000  Level FlightAware Transoceanic
03:24 52.8797 -36.2091 71° East 556 640 33,000  Level FlightAware Transoceanic
03:25 52.9306 -35.9672 71° East 556 640 33,000  Level FlightAware Transoceanic
03:26 52.9810 -35.7247 71° East 556 640 33,000  Level FlightAware Transoceanic
03:27 53.0309 -35.4817 71° East 556 640 33,000  Level FlightAware Transoceanic
03:28 53.0804 -35.2381 71° East 556 640 33,000  Level FlightAware Transoceanic
03:29 53.1293 -34.9940 72° East 556 640 33,000  Level FlightAware Transoceanic
03:30 53.1777 -34.7493 72° East 556 640 33,000  Level FlightAware Transoceanic
03:31 53.2256 -34.5040 72° East 556 640 33,000  Level FlightAware Transoceanic
03:32 53.2730 -34.2582 72° East 556 640 33,000  Level FlightAware Transoceanic
03:33 53.3199 -34.0119 72° East 556 640 33,000  Level FlightAware Transoceanic
03:34 53.3663 -33.7650 73° East 556 640 33,000  Level FlightAware Transoceanic
03:35 53.4122 -33.5176 73° East 556 640 33,000  Level FlightAware Transoceanic
03:36 53.4576 -33.2697 73° East 556 640 33,000  Level FlightAware Transoceanic
03:37 53.5025 -33.0212 73° East 556 640 33,000  Level FlightAware Transoceanic
03:38 53.5468 -32.7722 73° East 556 640 33,000  Level FlightAware Transoceanic
03:39 53.5906 -32.5227 74° East 556 640 33,000  Level FlightAware Transoceanic
03:40 53.6339 -32.2727 74° East 556 640 33,000  Level FlightAware Transoceanic
03:41 53.6767 -32.0221 74° East 556 640 33,000  Level FlightAware Transoceanic
03:42 53.7190 -31.7711 74° East 556 640 33,000  Level FlightAware Transoceanic
03:43 53.7607 -31.5196 74° East 556 640 33,000  Level FlightAware Transoceanic
03:44 53.8019 -31.2675 75° East 556 640 33,000  Level FlightAware Transoceanic
03:45 53.8426 -31.0150 75° East 556 640 33,000  Level FlightAware Transoceanic
03:46 53.8828 -30.7619 75° East 556 640 33,000  Level FlightAware Transoceanic
03:47 53.9224 -30.5084 75° East 556 640 33,000  Level FlightAware Transoceanic
03:48 53.9615 -30.2545 75° East 556 640 33,000  Level FlightAware Transoceanic
03:49 53.9986 -30.0095 75° East  Level FlightAware Approximate
03:50 54.0352 -29.7641 76° East  Level FlightAware Approximate
03:51 54.0322 -29.7730 76° East  Level FlightAware Approximate
03:51 54.0000 -30.0000 76° East 605 696 33,000  Level ETMS Enhanced Traffic Management System
03:52 54.0667 -29.5265 77° East  Level FlightAware Approximate
03:53 54.0997 -29.2868 77° East  Level FlightAware Approximate
03:54 54.1322 -29.0466 77° East  Level FlightAware Approximate
03:55 54.1642 -28.8062 77° East  Level FlightAware Approximate
03:56 54.1958 -28.5653 77° East  Level FlightAware Approximate
03:57 54.3008 -27.7604 78° East 605 696 33,000  Level FlightAware Transoceanic
03:58 54.3354 -27.4782 78° East 605 696 33,000  Level FlightAware Transoceanic
03:59 54.3694 -27.1955 78° East 605 696 33,000  Level FlightAware Transoceanic
04:00 54.4027 -26.9124 79° East 605 696 33,000  Level FlightAware Transoceanic
04:01 54.4354 -26.6288 79° East 605 696 33,000  Level FlightAware Transoceanic
04:02 54.4674 -26.3448 79° East 605 696 33,000  Level FlightAware Transoceanic
04:03 54.4988 -26.0603 79° East 605 696 33,000  Level FlightAware Transoceanic
04:04 54.5294 -25.7754 80° East 605 696 33,000  Level FlightAware Transoceanic
04:05 54.5594 -25.4901 80° East 605 696 33,000  Level FlightAware Transoceanic
04:06 54.5888 -25.2043 80° East 605 696 33,000  Level FlightAware Transoceanic
04:07 54.6174 -24.9182 80° East 605 696 33,000  Level FlightAware Transoceanic
04:08 54.6454 -24.6317 81° East 605 696 33,000  Level FlightAware Transoceanic
04:09 54.6727 -24.3447 81° East 605 696 33,000  Level FlightAware Transoceanic
04:10 54.6993 -24.0574 81° East 605 696 33,000  Level FlightAware Transoceanic
04:11 54.7253 -23.7697 81° East 605 696 33,000  Level FlightAware Transoceanic
04:12 54.7505 -23.4817 81° East 605 696 33,000  Level FlightAware Transoceanic
04:13 54.7751 -23.1933 82° East 605 696 33,000  Level FlightAware Transoceanic
04:14 54.7990 -22.9045 82° East 605 696 33,000  Level FlightAware Transoceanic
04:15 54.8222 -22.6154 82° East 605 696 33,000  Level FlightAware Transoceanic
04:16 54.8447 -22.3260 82° East 605 696 33,000  Level FlightAware Transoceanic
04:17 54.8666 -22.0363 83° East 605 696 33,000  Level FlightAware Transoceanic
04:18 54.8877 -21.7462 83° East 605 696 33,000  Level FlightAware Transoceanic
04:19 54.9082 -21.4559 83° East 605 696 33,000  Level FlightAware Transoceanic
04:20 54.9279 -21.1653 83° East 605 696 33,000  Level FlightAware Transoceanic
04:21 54.9470 -20.8743 84° East 605 696 33,000  Level FlightAware Transoceanic
04:22 54.9654 -20.5832 84° East 605 696 33,000  Level FlightAware Transoceanic
04:23 54.9830 -20.2917 84° East 605 696 33,000  Level FlightAware Transoceanic
04:24 54.9977 -20.0412 84° East  Level FlightAware Approximate
04:25 55.0117 -19.7905 84° East  Level FlightAware Approximate
04:26 54.9797 -19.8348 102° East  Level FlightAware Approximate
04:27 54.9491 -19.5889 102° East  Level FlightAware Approximate
04:28 54.9179 -19.3434 102° East  Level FlightAware Approximate
04:29 54.8863 -19.0982 103° East  Level FlightAware Approximate
04:30 54.8541 -18.8535 103° East  Level FlightAware Approximate
04:31 54.8215 -18.6091 103° East  Level FlightAware Approximate
04:32 54.7884 -18.3652 103° East  Level FlightAware Approximate
04:33 54.7548 -18.1216 103° East  Level FlightAware Approximate
04:34 54.7207 -17.8785 104° East  Level FlightAware Approximate
04:35 54.6861 -17.6358 104° East  Level FlightAware Approximate
04:36 54.6511 -17.3934 104° East  Level FlightAware Approximate
04:37 54.6155 -17.1516 104° East  Level FlightAware Approximate
04:38 54.5795 -16.9101 104° East  Level FlightAware Approximate
04:39 54.5430 -16.6690 105° East  Level FlightAware Approximate
04:40 54.5060 -16.4284 105° East  Level FlightAware Approximate
04:41 54.4686 -16.1883 105° East  Level FlightAware Approximate
04:42 54.4306 -15.9485 105° East  Level FlightAware Approximate
04:43 54.3922 -15.7093 105° East  Level FlightAware Approximate
04:44 54.3534 -15.4704 106° East  Level FlightAware Approximate
04:45 54.3140 -15.2320 106° East  Level FlightAware Approximate
04:46 54.2742 -14.9941 106° East  Level FlightAware Approximate
04:47 54.2339 -14.7567 106° East  Level FlightAware Approximate
04:48 54.1931 -14.5197 106° East  Level FlightAware Approximate
04:49 54.1519 -14.2831 106° East  Level FlightAware Approximate
04:50 54.1111 -14.0467 105° East  Level FlightAware Approximate
04:51 54.0728 -13.8092 107° East  Level FlightAware Approximate
04:52 54.0295 -13.5745 107° East  Level FlightAware Approximate
04:53 53.9857 -13.3403 108° East  Level FlightAware Approximate
04:54 53.9415 -13.1065 108° East  Level FlightAware Approximate
04:55 53.8968 -12.8733 108° East  Level FlightAware Approximate
04:56 53.8517 -12.6405 108° East  Level FlightAware Approximate
04:57 53.8061 -12.4082 108° East  Level FlightAware Approximate
04:58 53.7601 -12.1765 108° East  Level FlightAware Approximate
04:59 53.7136 -11.9453 109° East  Level FlightAware Approximate
05:00 53.6666 -11.7146 109° East  Level FlightAware Approximate
05:01 53.6199 -11.4840 109° East  Level FlightAware Approximate
05:02 53.5731 -11.2537 109° East  Level FlightAware Approximate
05:03 53.5258 -11.0240 109° East  Level FlightAware Approximate
05:04 53.4781 -10.7948 109° East  Level FlightAware Approximate
05:05 53.4299 -10.5660 109° East  Level FlightAware Approximate
05:06 53.3813 -10.3379 110° East  Level FlightAware Approximate
05:07 53.3323 -10.1102 110° East  Level FlightAware Approximate
05:08 53.2829 -9.8830 110° East  Level FlightAware Approximate
05:09 53.2330 -9.6564 110° East  Level FlightAware Approximate
05:09 53.3969 -8.9781 110° East 490 564 33,500  Level FlightAware UK
05:09 53.3740 -8.9107 120° Southeast 490 564 33,500  Level FlightAware UK
05:09 53.3513 -8.8436 120° Southeast 490 564 33,500  Level FlightAware UK
05:09 53.3286 -8.7767 120° Southeast 490 564 33,500  Level FlightAware UK
05:10 53.3060 -8.7101 120° Southeast 490 564 33,500  Level FlightAware UK
05:10 53.2833 -8.6437 120° Southeast 490 564 33,500  Level FlightAware UK
05:10 53.2604 -8.5776 120° Southeast 492 566 33,500  Level FlightAware UK
05:11 53.2375 -8.5114 120° Southeast 490 564 33,500  Level FlightAware UK
05:11 53.2144 -8.4454 120° Southeast 492 566 33,500  Level FlightAware UK
05:11 53.1910 -8.3787 120° Southeast 490 564 33,500  Level FlightAware UK
05:12 53.1680 -8.3128 120° Southeast 488 562 33,500  Level FlightAware UK
05:12 53.1451 -8.2473 120° Southeast 488 562 33,500  Level FlightAware UK
05:12 53.1220 -8.1819 120° Southeast 488 562 33,500  Level FlightAware UK
05:12 53.0988 -8.1168 121° Southeast 488 562 33,500  Level FlightAware UK
05:13 53.0755 -8.0519 121° Southeast 488 562 33,500  Level FlightAware UK
05:13 53.0523 -7.9870 121° Southeast 488 562 33,500  Level FlightAware UK
05:13 53.0291 -7.9222 121° Southeast 488 562 33,500  Level FlightAware UK
05:14 53.0060 -7.8573 120° Southeast 488 562 33,500  Level FlightAware UK
05:14 52.9846 -7.7913 118° Southeast 488 562 33,500  Level FlightAware UK
05:14 52.9628 -7.7254 119° Southeast 488 562 33,500  Level FlightAware UK
05:15 52.9408 -7.6595 119° Southeast 488 562 33,500  Level FlightAware UK
05:15 52.9186 -7.5941 119° Southeast 488 562 33,500  Level FlightAware UK
05:15 52.8963 -7.5293 120° Southeast 486 559 33,500  Level FlightAware UK
05:15 52.8739 -7.4643 120° Southeast 484 557 33,500  Level FlightAware UK
05:16 52.8515 -7.3995 120° Southeast 484 557 33,500  Level FlightAware UK
05:16 52.8291 -7.3346 120° Southeast 484 557 33,500  Level FlightAware UK
05:16 52.8066 -7.2695 120° Southeast 488 562 33,500  Level FlightAware UK
05:17 52.7838 -7.2046 120° Southeast 490 564 33,500  Level FlightAware UK
05:17 52.7607 -7.1390 120° Southeast 490 564 33,500  Level FlightAware UK
05:17 52.7378 -7.0741 120° Southeast 490 564 33,500  Level FlightAware UK
05:18 52.7149 -7.0090 120° Southeast 490 564 33,500  Level FlightAware UK
05:18 52.6920 -6.9439 120° Southeast 490 564 33,500  Level FlightAware UK
05:18 52.6689 -6.8789 120° Southeast 492 566 33,500  Level FlightAware UK
05:18 52.6460 -6.8138 120° Southeast 492 566 33,500  Level FlightAware UK
05:19 52.6230 -6.7488 120° Southeast 492 566 33,500  Level FlightAware UK
05:19 52.5998 -6.6840 120° Southeast 490 564 33,500  Level FlightAware UK
05:19 52.5767 -6.6193 120° Southeast 490 564 33,500  Level FlightAware UK
05:20 52.5536 -6.5546 120° Southeast 490 564 33,500  Level FlightAware UK
05:20 52.5305 -6.4901 120° Southeast 490 564 33,500  Level FlightAware UK
05:20 52.5073 -6.4258 121° Southeast 490 564 33,500  Level FlightAware UK
05:21 52.4841 -6.3615 121° Southeast 490 564 33,500  Level FlightAware UK
05:21 52.4610 -6.2971 120° Southeast 490 564 33,500  Level FlightAware UK
05:21 52.4376 -6.2329 121° Southeast 490 564 33,500  Level FlightAware UK
05:21 52.4143 -6.1687 121° Southeast 490 564 33,500  Level FlightAware UK
05:22 52.3909 -6.1046 121° Southeast 490 564 33,500  Level FlightAware UK
05:22 52.3673 -6.0399 121° Southeast 490 564 33,500  Level FlightAware UK
05:22 52.3439 -5.9759 121° Southeast 490 564 33,500  Level FlightAware UK
05:23 52.3205 -5.9120 121° Southeast 490 564 33,500  Level FlightAware UK
05:23 52.2970 -5.8482 121° Southeast 490 564 33,500  Level FlightAware UK
05:23 52.2735 -5.7845 121° Southeast 490 564 33,500  Level FlightAware UK
05:24 52.2500 -5.7208 121° Southeast 490 564 33,500  Level FlightAware UK
05:24 52.1871 -5.5514 121° Southeast 490 564 33,500  Level FlightAware UK
05:25 52.1397 -5.4250 121° Southeast 490 564 33,500  Level FlightAware UK
05:25 52.1160 -5.3619 121° Southeast 490 564 33,500  Level FlightAware UK
05:26 52.0917 -5.2986 122° Southeast 490 564 33,500  Level FlightAware UK
05:26 52.0679 -5.2367 122° Southeast 490 564 33,500  Level FlightAware UK
05:26 52.0435 -5.1736 122° Southeast 490 564 33,500  Level FlightAware UK
05:27 52.0112 -5.0906 122° Southeast 490 564 33,500  Level FlightAware UK
05:27 51.9706 -4.9872 122° Southeast 490 564 33,500  Level FlightAware UK
05:27 51.9379 -4.9046 123° Southeast 490 564 33,500  Level FlightAware UK
05:28 51.9132 -4.8428 123° Southeast 490 564 33,500  Level FlightAware UK
05:28 51.8804 -4.7605 123° Southeast 490 564 33,500  Level FlightAware UK
05:29 51.8475 -4.6782 123° Southeast 490 564 33,500  Level FlightAware UK
05:29 51.8227 -4.6166 123° Southeast 492 566 33,500  Level FlightAware UK
05:29 51.7811 -4.5134 123° Southeast 492 566 33,500  Level FlightAware UK
05:30 51.7331 -4.3883 122° Southeast 492 566 33,500  Level FlightAware UK
05:30 51.7096 -4.2709 108° East 490 564 33,500  Level FlightAware UK
05:31 51.7013 -4.1981 100° East 490 564 33,500  Level FlightAware UK
05:31 51.6938 -4.1253 99° East 490 564 33,500  Level FlightAware UK
05:32 51.6646 -3.8586 100° East 490 564 33,500  Level FlightAware UK
05:32 51.6565 -3.7859 100° East 490 564 33,500  Level FlightAware UK
05:33 51.6423 -3.6641 101° East 488 562 33,500  Level FlightAware UK
05:33 51.6338 -3.5914 101° East 490 564 33,500  Level FlightAware UK
05:34 51.6252 -3.5187 101° East 490 564 33,500  Level FlightAware UK
05:34 51.6136 -3.4218 101° East 490 564 33,500  Level FlightAware UK
05:34 51.6014 -3.3245 101° East 490 564 33,500  Level FlightAware UK
05:35 51.5924 -3.2531 101° East 490 564 33,500  Level FlightAware UK
05:35 51.5834 -3.1809 101° East 490 564 33,500  Level FlightAware UK
05:35 51.5743 -3.1088 101° East 490 564 33,500  Level FlightAware UK
05:36 51.5491 -2.9160 102° East 492 566 33,500  Level FlightAware UK
05:37 51.5333 -2.7962 102° East 492 566 33,500  Level FlightAware UK
05:37 51.5208 -2.7004 102° East 490 564 33,500  Level FlightAware UK
05:38 51.5041 -2.5316 99° East 492 566 33,500  Level FlightAware UK
05:38 51.4987 -2.4581 97° East 492 566 33,500  Level FlightAware UK
05:38 51.4926 -2.3613 96° East 492 566 33,500  Level FlightAware UK
05:39 51.4887 -2.2887 95° East 492 566 33,500  Level FlightAware UK
05:39 51.4809 -2.1430 95° East 492 566 33,500  Level FlightAware UK
05:40 51.4752 -2.0464 95° East 492 566 33,500  Level FlightAware UK
05:40 51.4679 -1.9257 96° East 490 564 33,500  Level FlightAware UK
05:41 51.4571 -1.7552 96° East 490 564 33,500  Level FlightAware UK
05:41 51.4525 -1.6836 96° East 492 566 33,500  Level FlightAware UK
05:42 51.4462 -1.5864 96° East 492 566 33,500  Level FlightAware UK
05:42 51.4414 -1.5143 96° East 490 564 33,500  Level FlightAware UK
05:42 51.4350 -1.4174 96° East 490 564 33,500  Level FlightAware UK
05:43 51.4285 -1.3215 96° East 490 564 33,500  Level FlightAware UK
05:43 51.4220 -1.2256 96° East 490 564 33,500  Level FlightAware UK
05:44 51.4039 -0.9616 96° East 490 564 33,500  Level FlightAware UK
05:45 51.3904 -0.7717 96° East 490 564 33,500  Level FlightAware UK
05:45 51.3834 -0.6757 97° East 490 564 33,500  Level FlightAware UK
05:46 51.3783 -0.6032 96° East 492 566 33,500  Level FlightAware UK
05:46 51.3730 -0.5315 97° East 492 566 33,500  Level FlightAware UK
05:47 51.3570 -0.3159 97° East 492 566 33,500  Level FlightAware UK
05:48 51.3425 -0.1268 97° East 490 564 33,500  Level FlightAware UK
05:48 51.3335 -0.0085 97° East 490 564 33,500  Level FlightAware UK
05:48 51.3278 0.0624 97° East 490 564 33,500  Level FlightAware UK
05:49 51.3222 0.1333 97° East 490 564 33,500  Level FlightAware UK
05:49 51.3126 0.2527 97° East 488 562 33,500  Level FlightAware UK
05:50 51.3070 0.3227 97° East 486 559 33,500  Level FlightAware UK
05:50 51.2974 0.4404 97° East 484 557 33,500  Level FlightAware UK
05:50 51.2916 0.5109 98° East 484 557 33,500  Level FlightAware UK
05:51 51.2856 0.5820 98° East 484 557 33,500  Level FlightAware UK
05:51 51.2758 0.6987 98° East 482 555 33,500  Level FlightAware UK
05:52 51.2678 0.7919 98° East 482 555 33,500  Level FlightAware UK
05:52 51.2579 0.9089 98° East 482 555 33,500  Level FlightAware UK
05:52 51.2499 1.0018 98° East 482 555 33,500  Level FlightAware UK
05:53 51.2416 1.0954 98° East 482 555 33,500  Level FlightAware UK
05:53 51.2334 1.1882 98° East 482 555 33,500  Level FlightAware UK
05:54 51.2273 1.2578 98° East 482 555 33,500  Level FlightAware UK
05:54 51.2169 1.3738 98° East 484 557 33,500  Level FlightAware UK
05:54 51.2106 1.4441 98° East 484 557 33,500  Level FlightAware UK
05:55 51.2042 1.5135 98° East 484 557 33,500  Level FlightAware UK
05:55 51.1978 1.5829 98° East 482 555 33,500  Level FlightAware UK
05:55 51.1870 1.6984 98° East 482 555 33,500  Level FlightAware UK
05:56 51.1805 1.7677 98° East 482 555 33,500  Level FlightAware UK
05:56 51.1739 1.8378 99° East 482 555 33,500  Level FlightAware UK
05:56 51.1675 1.9063 98° East 482 555 33,500  Level FlightAware UK
05:57 51.1608 1.9763 99° East 482 555 33,500  Level FlightAware UK
05:57 51.1541 2.0456 99° East 482 555 33,500  Level FlightAware UK
05:57 51.1453 2.1379 99° East 484 557 33,500  Level FlightAware UK
05:58 51.1386 2.2071 99° East 484 557 33,500  Level FlightAware UK
05:58 51.1321 2.2764 99° East 484 557 33,500  Level FlightAware UK
05:58 51.1231 2.3695 99° East 484 557 33,500  Level FlightAware UK
05:59 51.1139 2.4616 99° East 484 557 33,500  Level FlightAware UK
05:59 51.1047 2.5535 99° East 484 557 33,500  Level FlightAware UK
05:59 51.0974 2.6225 100° East 484 557 33,500  Level FlightAware UK
06:00 51.0747 2.7591 105° East 484 557 33,500  Level FlightAware UK
06:00 51.0568 2.8488 108° East 484 557 33,500  Level FlightAware UK
06:01 51.0334 2.9842 105° East 484 557 33,500  Level FlightAware UK
06:02 51.0021 3.1647 105° East 484 557 33,500  Level FlightAware UK
06:02 50.9817 3.2776 106° East 482 555 33,500  Level FlightAware UK
06:03 50.9606 3.3892 107° East 484 557 33,500  Level FlightAware UK
06:04 50.9307 3.5451 107° East 482 555 33,500  Level FlightAware UK
06:04 50.8924 3.7450 107° East 482 555 33,500  Level FlightAware UK
06:06 50.8449 3.9879 107° East 482 555 33,500  Level FlightAware UK
06:06 50.8232 4.0980 107° East 484 557 33,500  Level FlightAware UK
06:07 50.7841 4.2968 107° East 482 555 33,500  Level FlightAware UK
06:07 50.7711 4.3627 107° East 482 555 33,500  Level FlightAware UK
06:08 50.7582 4.4286 107° East 482 555 33,500  Level FlightAware UK
06:08 50.7449 4.4942 108° East 482 555 33,500  Level FlightAware UK
06:10 50.6337 4.8184 118° Southeast  Level Estimated
06:17 50.1419 6.2042 119° Southeast  Level Estimated
06:18 50.0704 6.3998 120° Southeast  Level Estimated
06:19 49.9984 6.5949 120° Southeast  Level Estimated
06:20 49.9262 6.7893 120° Southeast  Level Estimated
06:21 49.8536 6.9832 120° Southeast  Level Estimated
06:22 49.7808 7.1765 120° Southeast  Level Estimated
06:23 49.7076 7.3692 120° Southeast  Level Estimated
06:24 49.6340 7.5614 121° Southeast  Level Estimated
06:25 49.5602 7.7529 121° Southeast  Level Estimated
06:26 49.4861 7.9439 121° Southeast  Level Estimated
06:27 49.4116 8.1343 121° Southeast  Level Estimated
06:28 49.3368 8.3241 121° Southeast  Level Estimated
06:29 49.2617 8.5133 121° Southeast  Level Estimated
06:30 49.1864 8.7020 121° Southeast  Level Estimated
06:31 49.1107 8.8901 122° Southeast  Level Estimated
06:32 49.0347 9.0776 122° Southeast  Level Estimated
06:33 48.9584 9.2646 122° Southeast  Level Estimated
06:34 48.8817 9.4509 122° Southeast  Level Estimated
06:35 48.8048 9.6367 122° Southeast  Level Estimated
06:36 48.7276 9.8219 122° Southeast  Level Estimated
06:37 48.6501 10.0066 122° Southeast  Level Estimated
06:38 48.5723 10.1907 123° Southeast  Level Estimated
06:39 48.4942 10.3742 123° Southeast  Level Estimated
06:40 48.4159 10.5572 123° Southeast  Level Estimated
06:41 48.3372 10.7396 123° Southeast  Level Estimated
06:42 48.2582 10.9214 123° Southeast  Level Estimated
06:43 48.1790 11.1027 123° Southeast  Level Estimated
06:44 48.0994 11.2834 123° Southeast  Level Estimated
06:45 48.0196 11.4635 123° Southeast  Level Estimated
06:46 47.9395 11.6431 124° Southeast  Level Estimated
06:47 47.8592 11.8222 124° Southeast  Level Estimated
06:48 47.7785 12.0006 124° Southeast  Level Estimated
06:49 47.6976 12.1786 124° Southeast  Level Estimated
06:50 47.6164 12.3559 124° Southeast  Level Estimated
06:51 47.5350 12.5328 124° Southeast  Level Estimated
06:52 47.4532 12.7090 124° Southeast  Level Estimated
06:53 47.3712 12.8848 125° Southeast  Level Estimated
06:54 47.2889 13.0599 125° Southeast  Level Estimated
06:55 47.2064 13.2346 125° Southeast  Level Estimated
06:56 47.1236 13.4087 125° Southeast  Level Estimated
06:57 47.0405 13.5822 125° Southeast  Level Estimated
06:58 46.9572 13.7552 125° Southeast  Level Estimated
06:59 46.8736 13.9277 125° Southeast  Level Estimated
07:00 46.7897 14.0996 125° Southeast  Level Estimated
07:01 46.7056 14.2710 126° Southeast  Level Estimated
07:02 46.6213 14.4419 126° Southeast  Level Estimated
07:03 46.5367 14.6122 126° Southeast  Level Estimated
07:04 46.4518 14.7820 126° Southeast  Level Estimated
07:05 46.3667 14.9513 126° Southeast  Level Estimated
07:06 46.2813 15.1200 126° Southeast  Level Estimated
07:07 46.1957 15.2882 126° Southeast  Level Estimated
07:08 46.1098 15.4559 126° Southeast  Level Estimated
07:09 46.0237 15.6231 127° Southeast  Level Estimated
07:10 45.9374 15.7898 127° Southeast  Level Estimated
07:11 45.8508 15.9559 127° Southeast  Level Estimated
07:12 45.7637 16.1221 127° Southeast  Level Estimated
07:13 45.6763 16.2877 127° Southeast  Level Estimated
07:14 45.5887 16.4529 127° Southeast  Level Estimated
07:15 45.5008 16.6175 127° Southeast  Level Estimated
07:16 45.4128 16.7816 127° Southeast  Level Estimated
07:17 45.3245 16.9452 127° Southeast  Level Estimated
07:18 45.2359 17.1083 128° Southeast  Level Estimated
07:19 45.1471 17.2709 128° Southeast  Level Estimated
07:20 45.0581 17.4330 128° Southeast  Level Estimated
07:21 44.9689 17.5946 128° Southeast  Level Estimated
07:22 44.8794 17.7557 128° Southeast  Level Estimated
07:23 44.7897 17.9163 128° Southeast  Level Estimated
07:24 44.6998 18.0763 128° Southeast  Level Estimated
07:25 44.6097 18.2359 128° Southeast  Level Estimated
07:26 44.5193 18.3950 129° Southeast  Level Estimated
07:27 44.4287 18.5536 129° Southeast  Level Estimated
07:28 44.3379 18.7117 129° Southeast  Level Estimated
07:29 44.2469 18.8693 129° Southeast  Level Estimated
07:30 44.1557 19.0264 129° Southeast  Level Estimated
07:31 44.0642 19.1831 129° Southeast  Level Estimated
07:32 43.9726 19.3392 129° Southeast  Level Estimated
07:33 43.8807 19.4949 129° Southeast  Level Estimated
07:34 43.7886 19.6501 129° Southeast  Level Estimated
07:35 43.6963 19.8048 129° Southeast  Level Estimated
07:36 43.6038 19.9590 130° Southeast  Level Estimated
07:37 43.5111 20.1128 130° Southeast  Level Estimated
07:38 43.4182 20.2661 130° Southeast  Level Estimated
07:39 43.3251 20.4189 130° Southeast  Level Estimated
07:40 43.2318 20.5712 130° Southeast  Level Estimated
07:41 43.1383 20.7231 130° Southeast  Level Estimated
07:42 43.0446 20.8745 130° Southeast  Level Estimated
07:43 42.9506 21.0255 130° Southeast  Level Estimated
07:44 42.8565 21.1760 130° Southeast  Level Estimated
07:45 42.7622 21.3260 131° Southeast  Level Estimated
07:46 42.6677 21.4756 131° Southeast  Level Estimated
07:47 42.5730 21.6248 131° Southeast  Level Estimated
07:48 42.4781 21.7734 131° Southeast  Level Estimated
07:49 42.3830 21.9217 131° Southeast  Level Estimated
07:50 42.2877 22.0694 131° Southeast  Level Estimated
07:51 42.1923 22.2168 131° Southeast  Level Estimated
07:52 42.0966 22.3637 131° Southeast  Level Estimated
07:53 42.0008 22.5101 131° Southeast  Level Estimated
07:54 41.9047 22.6561 131° Southeast  Level Estimated
07:55 41.8085 22.8017 132° Southeast  Level Estimated
07:56 41.7121 22.9468 132° Southeast  Level Estimated
07:57 41.6156 23.0915 132° Southeast  Level Estimated
07:58 41.5188 23.2357 132° Southeast  Level Estimated
07:59 41.4219 23.3796 132° Southeast  Level Estimated
08:00 41.3247 23.5230 132° Southeast  Level Estimated
08:01 41.2275 23.6659 132° Southeast  Level Estimated
08:02 41.1300 23.8085 132° Southeast  Level Estimated
08:03 41.0323 23.9506 132° Southeast  Level Estimated
08:04 40.9345 24.0923 132° Southeast  Level Estimated
08:05 40.8365 24.2336 132° Southeast  Level Estimated
08:06 40.7384 24.3745 133° Southeast  Level Estimated
08:07 40.6400 24.5149 133° Southeast  Level Estimated
08:08 40.5415 24.6549 133° Southeast  Level Estimated
08:09 40.4429 24.7946 133° Southeast  Level Estimated
08:10 40.3440 24.9338 133° Southeast  Level Estimated
08:11 40.2450 25.0726 133° Southeast  Level Estimated
08:12 40.1459 25.2110 133° Southeast  Level Estimated
08:13 40.0465 25.3490 133° Southeast  Level Estimated
08:14 39.9470 25.4866 133° Southeast  Level Estimated
08:15 39.8474 25.6238 133° Southeast  Level Estimated
08:16 39.7475 25.7606 133° Southeast  Level Estimated
08:17 39.6476 25.8970 134° Southeast  Level Estimated
08:18 39.5474 26.0330 134° Southeast  Level Estimated
08:19 39.4471 26.1686 134° Southeast  Level Estimated
08:20 39.3467 26.3038 134° Southeast  Level Estimated
08:21 39.2461 26.4386 134° Southeast  Level Estimated
08:22 39.1453 26.5731 134° Southeast  Level Estimated
08:23 39.0444 26.7071 134° Southeast  Level Estimated
08:24 38.9433 26.8408 134° Southeast  Level Estimated
08:25 38.8421 26.9741 134° Southeast  Level Estimated
08:26 38.7407 27.1070 134° Southeast  Level Estimated
08:27 38.6391 27.2396 134° Southeast  Level Estimated
08:28 38.5375 27.3718 135° Southeast  Level Estimated
08:29 38.4356 27.5036 135° Southeast  Level Estimated
08:30 38.3337 27.6350 135° Southeast  Level Estimated
08:31 38.2316 27.7660 135° Southeast  Level Estimated
08:32 38.1293 27.8967 135° Southeast  Level Estimated
08:33 38.0269 28.0270 135° Southeast  Level Estimated
08:34 37.9243 28.1570 135° Southeast  Level Estimated
08:35 37.8217 28.2866 135° Southeast  Level Estimated
08:36 37.7188 28.4158 135° Southeast  Level Estimated
08:37 37.6158 28.5447 135° Southeast  Level Estimated
08:38 37.5127 28.6732 135° Southeast  Level Estimated
08:39 37.4095 28.8014 135° Southeast  Level Estimated
08:40 37.3061 28.9292 135° Southeast  Level Estimated
08:41 37.2025 29.0567 136° Southeast  Level Estimated
08:42 37.0989 29.1838 136° Southeast  Level Estimated
08:43 36.9951 29.3105 136° Southeast  Level Estimated
08:44 36.8911 29.4369 136° Southeast  Level Estimated
08:45 36.7871 29.5630 136° Southeast  Level Estimated
08:46 36.6829 29.6887 136° Southeast  Level Estimated
08:47 36.5785 29.8141 136° Southeast  Level Estimated
08:48 36.4741 29.9392 136° Southeast  Level Estimated
08:49 36.3695 30.0639 136° Southeast  Level Estimated
08:50 36.2648 30.1883 136° Southeast  Level Estimated
08:51 36.1599 30.3123 136° Southeast  Level Estimated
08:52 36.0549 30.4360 136° Southeast  Level Estimated
08:53 35.9498 30.5594 136° Southeast  Level Estimated
08:54 35.8446 30.6825 137° Southeast  Level Estimated
08:55 35.7392 30.8052 137° Southeast  Level Estimated
08:56 35.6338 30.9276 137° Southeast  Level Estimated
08:57 35.5281 31.0497 137° Southeast  Level Estimated
08:58 35.4224 31.1714 137° Southeast  Level Estimated
08:59 35.3166 31.2929 137° Southeast  Level Estimated
09:00 35.2106 31.4140 137° Southeast  Level Estimated
09:01 35.1045 31.5348 137° Southeast  Level Estimated
09:02 34.9983 31.6553 137° Southeast  Level Estimated
09:03 34.8920 31.7755 137° Southeast  Level Estimated
09:04 34.7855 31.8954 137° Southeast  Level Estimated
09:05 34.6790 32.0149 137° Southeast  Level Estimated
09:06 34.5723 32.1342 137° Southeast  Level Estimated
09:07 34.4655 32.2531 137° Southeast  Level Estimated
09:08 34.3586 32.3718 137° Southeast  Level Estimated
09:09 34.2515 32.4901 138° Southeast  Level Estimated
09:10 34.1444 32.6082 138° Southeast  Level Estimated
09:11 34.0371 32.7259 138° Southeast  Level Estimated
09:12 33.9298 32.8433 138° Southeast  Level Estimated
09:13 33.8223 32.9605 138° Southeast  Level Estimated
09:14 33.7147 33.0774 138° Southeast  Level Estimated
09:15 33.6070 33.1939 138° Southeast  Level Estimated
09:16 33.4992 33.3102 138° Southeast  Level Estimated
09:17 33.3913 33.4262 138° Southeast  Level Estimated
09:18 33.2833 33.5419 138° Southeast  Level Estimated
09:19 33.1752 33.6573 138° Southeast  Level Estimated
09:20 33.0669 33.7724 138° Southeast  Level Estimated
09:21 32.9586 33.8872 138° Southeast  Level Estimated
09:22 32.8501 34.0018 138° Southeast  Level Estimated
09:23 32.7416 34.1161 138° Southeast  Level Estimated
09:24 32.6329 34.2301 139° Southeast  Level Estimated
09:25 32.5242 34.3438 139° Southeast  Level Estimated
09:26 32.4153 34.4572 139° Southeast  Level Estimated
09:27 32.3064 34.5704 139° Southeast  Level Estimated
09:28 32.1973 34.6833 139° Southeast  Level Estimated
09:29 32.0882 34.7960 139° Southeast  Level Estimated
09:30 32.0095 34.8769 139° Southeast  Level Estimated
09:31 32.0095 34.8769 270° West  Level Estimated
09:32 32.0095 34.8769 270° West  Level Estimated
09:33 32.0095 34.8769 270° West  Level Estimated
09:34 32.0095 34.8769 270° West  Level Estimated
09:35 32.0095 34.8769 270° West  Level Estimated
09:36 32.0095 34.8769 270° West  Level Estimated
09:37 32.0095 34.8769 270° West  Level Estimated
09:38 32.0095 34.8769 270° West  Level Estimated
09:39 32.0095 34.8769 270° West  Level Estimated
09:40 32.0095 34.8769 270° West  Level Estimated
09:41 32.0095 34.8769 270° West  Level Estimated
09:42 32.0095 34.8769 270° West  Level Estimated
09:43 32.0095 34.8769 270° West  Level Estimated
09:44 32.0095 34.8769 270° West  Level Estimated
09:45 32.0095 34.8769 270° West  Level Estimated
09:46 32.0095 34.8769 270° West  Level Estimated
09:47 32.0095 34.8769 270° West  Level Estimated
09:48 32.0095 34.8769 270° West  Level Estimated
09:49 32.0095 34.8769 270° West  Level Estimated
09:50 32.0095 34.8769 270° West  Level Estimated
09:51 32.0095 34.8769 270° West  Level Estimated
09:52 32.0095 34.8769 270° West  Level Estimated
09:53 32.0095 34.8769 270° West  Level Estimated
09:54 32.0095 34.8769 270° West  Level Estimated
09:55 32.0095 34.8769 270° West  Level Estimated
09:56 32.0095 34.8769 270° West  Level Estimated